首页
METAR-TAF:

METAR-TAF

机场 :

朱麗安娜公主國際機場

荷屬聖馬丁, 荷属安的列斯

纬度: 18-03N, 经度: 063-07W, 海拔: 4米

当前天气观测

该预报发布于47分钟前的21:00 UTC
风速9节,风向东转东北,在东北之间变化
温度 29°C
湿度 70%
气压 1011 hPa
能见度10公里或以上
散云层高于1800英尺

METAR: TNCM 212100Z 06009KT 040V100 9999 SCT018 29/23 Q1010 A2984 NOSIG RMK SHRA W

时间: 17:47 (21:47 UTC)

预报

该预报发布于4小时和1分钟前的17:46 UTC
预报有效从21日的 18点(UTC)到 22日的 18点(UTC)
风速11节,风向
能見度: 10公里
散云层高于2200英尺
附近有阵雨
从 22日的 0100点(UTC)
风速8节,风向东转东北
能見度: 10公里
散云层高于1800英尺
附近有阵雨

TAF: TNCM 211746Z 2118/2218 09011KT P6SM VCSH SCT022 FM220100 07008KT P6SM VCSH SCT018

超过4000个机场的气象观测和天气预报(METAR&TAF报告)。

可查询的气象台以黄色和红色小点在地图上表示。

将鼠标移到小点上方,可查看气象台名称。

然后点击查看天气观测和预报。

如需切换地图:点击带黑十字的绿色按钮放大地图;点击带横线的绿色按钮缩小地图;或者点击绿色箭头查看邻近地区的地图。


METAR-TAF: